Time;durP1;ratioP1;P1;durP2;ratioP2;P2;SDS_P1;SDS_P2;PMS_P1;PMS_P2;Temp;Humidity;BMP_temperature;BMP_pressure;BME280_temperature;BME280_humidity;BME280_pressure;Samples;Min_cycle;Max_cycle;Signal;HPM_P1;HPM_P2
2023/01/06 00:00:15;;;;;;;8.38;5.38;;;;;;;9.11;100.00;101689.94;5026104;28;20021;-63
2023/01/06 00:02:40;;;;;;;7.78;5.32;;;;;;;9.12;100.00;101686.53;5029444;28;20717;-64
2023/01/06 00:05:06;;;;;;;9.45;5.53;;;;;;;9.13;100.00;101690.91;5035958;28;20113;-64
2023/01/06 00:07:31;;;;;;;10.35;5.90;;;;;;;9.11;100.00;101673.53;5024689;28;20076;-64
2023/01/06 00:09:56;;;;;;;10.93;6.13;;;;;;;9.15;100.00;101671.97;5023317;28;20446;-64
2023/01/06 00:12:22;;;;;;;7.47;5.35;;;;;;;9.15;100.00;101669.41;5025752;28;20071;-64
2023/01/06 00:14:47;;;;;;;9.05;5.75;;;;;;;9.13;100.00;101665.03;5023646;28;20513;-64
2023/01/06 00:17:13;;;;;;;6.57;5.22;;;;;;;9.15;100.00;101670.28;5025856;28;20075;-64
2023/01/06 00:19:38;;;;;;;7.45;5.22;;;;;;;9.16;100.00;101668.56;5025388;28;20056;-64
2023/01/06 00:22:04;;;;;;;7.80;5.03;;;;;;;9.13;100.00;101661.56;5025304;28;20064;-64
2023/01/06 00:24:31;;;;;;;8.68;4.18;;;;;;;9.13;100.00;101662.47;5028905;28;20021;-64
2023/01/06 00:26:56;;;;;;;11.05;5.05;;;;;;;9.14;100.00;101658.16;5026699;28;20017;-64
2023/01/06 00:29:21;;;;;;;9.50;4.53;;;;;;;9.14;100.00;101660.75;5027387;28;20452;-64
2023/01/06 00:31:46;;;;;;;6.43;4.57;;;;;;;9.15;100.00;101653.88;5028043;28;20021;-64
2023/01/06 00:34:12;;;;;;;6.82;4.10;;;;;;;9.15;100.00;101666.81;5031787;28;20027;-63
2023/01/06 00:36:37;;;;;;;5.97;3.80;;;;;;;9.13;100.00;101665.03;5034084;28;20036;-63
2023/01/06 00:39:02;;;;;;;6.60;3.92;;;;;;;9.13;100.00;101652.13;5008824;28;20029;-63
2023/01/06 00:44:11;;;;;;;5.60;3.95;;;;;;;9.10;100.00;101645.91;5020693;28;20452;-63
2023/01/06 00:46:37;;;;;;;9.23;4.43;;;;;;;9.10;100.00;101646.75;5018729;28;20762;-63
2023/01/06 00:49:03;;;;;;;7.55;3.72;;;;;;;9.11;100.00;101647.66;5034959;28;20025;-63
2023/01/06 00:51:29;;;;;;;8.70;3.65;;;;;;;9.12;100.00;101650.31;5026481;28;20033;-63
2023/01/06 00:53:54;;;;;;;9.05;4.15;;;;;;;9.12;100.00;101647.72;5026694;28;20133;-64
2023/01/06 00:56:19;;;;;;;6.65;3.40;;;;;;;9.15;100.00;101652.19;5016018;28;20026;-63
2023/01/06 00:58:45;;;;;;;7.25;3.97;;;;;;;9.15;100.00;101654.78;5008015;28;20531;-63
2023/01/06 01:01:11;;;;;;;5.45;3.20;;;;;;;9.15;100.00;101654.78;5024752;28;20029;-64
2023/01/06 01:03:39;;;;;;;4.78;3.00;;;;;;;9.12;100.00;101652.91;5016848;28;20434;-63
2023/01/06 01:06:07;;;;;;;6.07;3.20;;;;;;;9.11;100.00;101656.31;5011950;28;20536;-63
2023/01/06 01:08:32;;;;;;;4.57;2.83;;;;;;;9.13;100.00;101651.22;5026525;28;20021;-63
2023/01/06 01:11:05;;;;;;;4.40;2.58;;;;;;;9.14;100.00;101652.97;5025961;28;20021;-64
2023/01/06 01:13:32;;;;;;;4.00;2.60;;;;;;;9.15;100.00;101657.34;5025974;28;20018;-64
2023/01/06 01:16:05;;;;;;;5.18;2.33;;;;;;;9.16;100.00;101647.88;5024911;28;20026;-64
2023/01/06 01:18:30;;;;;;;4.50;2.33;;;;;;;9.17;100.00;101641.91;5025821;28;20507;-64
2023/01/06 01:20:55;;;;;;;5.43;2.03;;;;;;;9.15;100.00;101638.38;5026256;28;20017;-64
2023/01/06 01:23:21;;;;;;;3.03;2.17;;;;;;;9.15;100.00;101646.13;5026453;28;20121;-64
2023/01/06 01:25:46;;;;;;;7.78;2.22;;;;;;;9.15;100.00;101641.84;5025934;28;20030;-64
2023/01/06 01:28:11;;;;;;;5.25;1.67;;;;;;;9.16;100.00;101645.28;5025042;28;20036;-64
2023/01/06 01:30:37;;;;;;;7.30;2.00;;;;;;;9.17;100.00;101642.81;5026084;28;20064;-64
2023/01/06 01:33:02;;;;;;;4.38;2.13;;;;;;;9.17;100.00;101642.81;5013838;28;20029;-64
2023/01/06 01:35:27;;;;;;;5.72;1.80;;;;;;;9.19;100.00;101629.97;5030685;28;20025;-64
2023/01/06 01:37:52;;;;;;;4.57;1.70;;;;;;;9.16;100.00;101634.94;5034144;28;20053;-65
2023/01/06 01:40:18;;;;;;;5.32;1.75;;;;;;;9.17;100.00;101623.81;5024292;28;20025;-63
2023/01/06 01:42:43;;;;;;;3.63;1.50;;;;;;;9.21;100.00;101623.16;5025794;28;20036;-64
2023/01/06 01:45:26;;;;;;;4.43;1.85;;;;;;;9.20;100.00;101622.28;5024585;28;20107;-63
2023/01/06 01:47:59;;;;;;;4.65;1.55;;;;;;;9.21;100.00;101618.00;5029025;28;20485;-64
2023/01/06 01:50:34;;;;;;;3.22;1.35;;;;;;;9.22;100.00;101614.59;5028810;28;20029;-64
2023/01/06 01:53:13;;;;;;;1.90;1.02;;;;;;;9.22;100.00;101612.00;5013843;28;20050;-64
2023/01/06 01:55:39;;;;;;;3.67;1.35;;;;;;;9.23;100.00;101601.72;5010562;28;20034;-64
2023/01/06 01:58:12;;;;;;;2.83;1.23;;;;;;;9.21;100.00;101602.47;5014218;28;20473;-64
2023/01/06 02:00:39;;;;;;;4.80;1.40;;;;;;;9.19;100.00;101604.09;5029828;28;20107;-64
2023/01/06 02:03:05;;;;;;;4.45;1.38;;;;;;;9.18;100.00;101595.44;5029008;28;20462;-64
2023/01/06 02:05:32;;;;;;;2.78;1.50;;;;;;;9.18;100.00;101594.53;5030137;28;20157;-64
2023/01/06 02:08:02;;;;;;;2.30;0.85;;;;;;;9.19;100.00;101593.75;5029430;28;20416;-63
2023/01/06 02:10:28;;;;;;;4.15;1.27;;;;;;;9.20;100.00;101586.06;5030260;28;20051;-64
2023/01/06 02:12:56;;;;;;;4.13;1.15;;;;;;;9.18;100.00;101587.69;5029425;28;20037;-64
2023/01/06 02:15:33;;;;;;;4.15;1.20;;;;;;;9.18;100.00;101586.78;5030102;28;20037;-64
2023/01/06 02:18:14;;;;;;;2.80;0.90;;;;;;;9.16;100.00;101594.47;5029716;28;20033;-64
2023/01/06 02:21:05;;;;;;;3.20;0.90;;;;;;;9.15;100.00;101597.88;5028494;28;20043;-64
2023/01/06 02:23:53;;;;;;;3.63;1.10;;;;;;;9.16;100.00;101599.66;5029340;28;20147;-64
2023/01/06 02:26:28;;;;;;;6.53;1.30;;;;;;;9.16;100.00;101591.88;5017385;28;20041;-63
2023/01/06 02:28:59;;;;;;;5.28;1.17;;;;;;;9.18;100.00;101595.44;5028608;28;20083;-64
2023/01/06 02:31:56;;;;;;;4.05;1.20;;;;;;;9.22;100.00;101588.72;5016607;28;20420;-64
2023/01/06 02:34:38;;;;;;;2.38;1.10;;;;;;;9.20;100.00;101580.00;5026869;28;20124;-64
2023/01/06 02:37:31;;;;;;;4.65;1.25;;;;;;;9.18;100.00;101577.34;5026327;28;20025;-64
2023/01/06 02:40:02;;;;;;;5.18;0.93;;;;;;;9.19;100.00;101563.59;5019018;28;20556;-64
2023/01/06 02:42:54;;;;;;;1.58;0.80;;;;;;;9.17;100.00;101565.22;5017190;28;20045;-64
2023/01/06 02:45:45;;;;;;;2.95;1.05;;;;;;;9.17;100.00;101562.66;5023272;28;20032;-64
2023/01/06 02:48:10;;;;;;;;;;;;;;;9.17;100.00;101556.59;5030138;28;20483;-64
2023/01/06 02:50:53;;;;;;;3.20;1.52;;;;;;;9.19;100.00;101554.97;5028368;28;19912;-64
2023/01/06 02:53:28;;;;;;;2.55;0.80;;;;;;;9.19;100.00;101544.63;5028456;28;20141;-63
2023/01/06 02:55:56;;;;;;;2.38;0.88;;;;;;;9.21;100.00;101545.59;5011895;28;20029;-63
2023/01/06 02:58:33;;;;;;;4.60;0.93;;;;;;;9.21;100.00;101535.25;5016850;28;20028;-64
2023/01/06 03:01:13;;;;;;;3.90;1.08;;;;;;;9.26;100.00;101538.94;5014514;28;20025;-63
2023/01/06 03:03:43;;;;;;;2.42;0.82;;;;;;;9.26;100.00;101544.09;5020288;28;20038;-64
2023/01/06 03:06:14;;;;;;;3.72;0.98;;;;;;;9.29;100.00;101541.66;5028843;28;20036;-64
2023/01/06 03:08:40;;;;;;;2.33;1.02;;;;;;;9.30;100.00;101535.66;5029402;28;20465;-64
2023/01/06 03:11:05;;;;;;;1.83;0.70;;;;;;;9.34;100.00;101529.84;5029108;28;20021;-64
2023/01/06 03:13:40;;;;;;;3.17;0.73;;;;;;;9.33;100.00;101530.66;5028378;28;20029;-64
2023/01/06 03:16:07;;;;;;;2.25;0.82;;;;;;;9.36;100.00;101535.09;5017289;28;20170;-64
2023/01/06 03:18:33;;;;;;;2.47;0.70;;;;;;;9.36;100.00;101527.31;5025472;28;20501;-64
2023/01/06 03:21:02;;;;;;;5.15;0.73;;;;;;;9.34;100.00;101522.06;5011535;28;20026;-64
2023/01/06 03:23:27;;;;;;;2.38;0.70;;;;;;;9.31;100.00;101521.03;5008895;28;20060;-64
2023/01/06 03:25:53;;;;;;;1.73;0.77;;;;;;;9.33;100.00;101514.25;5013002;28;20057;-63
2023/01/06 03:28:18;;;;;;;2.00;0.70;;;;;;;9.30;100.00;101514.97;5028404;28;20021;-64
2023/01/06 03:30:52;;;;;;;3.80;1.00;;;;;;;9.30;100.00;101514.09;5014381;28;20104;-63
2023/01/06 03:33:40;;;;;;;5.50;0.80;;;;;;;9.29;100.00;101525.25;5028878;28;20039;-64
2023/01/06 03:36:27;;;;;;;2.60;0.80;;;;;;;9.26;100.00;101526.00;5025388;28;20076;-64
2023/01/06 03:39:10;;;;;;;2.70;0.90;;;;;;;9.28;100.00;101516.63;5028510;28;20029;-64
2023/01/06 03:45:18;;;;;;;2.03;0.70;;;;;;;9.29;100.00;101500.28;4989645;28;20056;-63
2023/01/06 03:47:56;;;;;;;2.65;0.90;;;;;;;9.31;100.00;101496.06;5014013;28;20108;-64
2023/01/06 03:50:29;;;;;;;4.43;0.93;;;;;;;9.30;100.00;101507.22;5026157;28;20029;-64
2023/01/06 03:53:35;;;;;;;5.55;1.00;;;;;;;9.31;100.00;101511.59;5024737;28;20494;-64
2023/01/06 03:56:17;;;;;;;3.88;0.93;;;;;;;9.30;100.00;101514.97;4983036;28;20060;-64
2023/01/06 03:58:47;;;;;;;3.22;0.90;;;;;;;9.29;100.00;101505.44;5024471;28;20021;-63
2023/01/06 04:01:14;;;;;;;3.10;0.90;;;;;;;9.29;100.00;101492.53;5025901;28;20029;-64
2023/01/06 04:03:44;;;;;;;3.35;0.88;;;;;;;9.30;100.00;101503.75;5024294;28;20037;-63
2023/01/06 04:06:09;;;;;;;3.88;1.25;;;;;;;9.29;100.00;101497.69;5026350;28;20428;-64
2023/01/06 04:08:34;;;;;;;2.40;0.70;;;;;;;9.31;100.00;101496.06;5023672;28;20061;-64
2023/01/06 04:10:59;;;;;;;3.70;1.30;;;;;;;9.33;100.00;101494.44;5019362;28;20084;-64
2023/01/06 04:13:25;;;;;;;3.45;0.82;;;;;;;9.29;100.00;101487.34;5008437;28;20026;-64
2023/01/06 04:15:50;;;;;;;4.60;1.00;;;;;;;9.33;100.00;101483.22;5027498;28;20029;-63
2023/01/06 04:18:15;;;;;;;3.38;1.00;;;;;;;9.37;100.00;101485.13;5023837;28;20136;-64
2023/01/06 04:20:41;;;;;;;3.47;0.73;;;;;;;9.41;100.00;101468.94;5025008;28;20029;-63
2023/01/06 04:23:06;;;;;;;2.20;0.77;;;;;;;9.41;100.00;101465.47;5025411;28;20044;-64
2023/01/06 04:25:31;;;;;;;4.00;0.85;;;;;;;9.41;100.00;101449.97;5024130;28;20264;-64
2023/01/06 04:27:56;;;;;;;2.22;0.88;;;;;;;9.39;100.00;101451.56;5024930;28;20074;-64
2023/01/06 04:30:22;;;;;;;3.25;1.13;;;;;;;9.41;100.00;101456.00;5016214;28;20025;-64
2023/01/06 04:32:47;;;;;;;1.45;0.52;;;;;;;9.40;100.00;101458.50;5016871;28;20033;-64
2023/01/06 04:35:12;;;;;;;1.95;0.70;;;;;;;9.42;100.00;101443.94;5022730;28;20066;-64
2023/01/06 04:37:38;;;;;;;1.90;0.80;;;;;;;9.41;100.00;101442.19;5027989;28;20022;-64
2023/01/06 04:40:04;;;;;;;2.13;0.70;;;;;;;9.41;100.00;101429.25;5008290;28;20025;-63
2023/01/06 04:43:03;;;;;;;2.45;0.85;;;;;;;9.43;100.00;101423.31;5018941;28;20033;-64
2023/01/06 04:45:14;;;;;;;1.55;0.68;;;;;;;9.45;100.00;101428.56;5020087;28;20068;-64
2023/01/06 04:47:40;;;;;;;2.13;0.70;;;;;;;9.47;100.00;101429.53;5021249;28;20477;-64
2023/01/06 04:50:05;;;;;;;1.25;0.63;;;;;;;9.47;100.00;101408.81;5010997;28;20034;-64
2023/01/06 04:52:30;;;;;;;3.58;0.52;;;;;;;9.49;100.00;101409.78;5010493;28;20391;-64
2023/01/06 04:54:56;;;;;;;1.38;0.60;;;;;;;9.46;100.00;101415.69;5021661;28;20095;-63
2023/01/06 04:57:22;;;;;;;2.08;0.47;;;;;;;9.44;100.00;101414.75;5010061;28;20433;-64
2023/01/06 04:59:47;;;;;;;1.38;0.50;;;;;;;9.46;100.00;101425.19;5010690;28;20103;-64
2023/01/06 05:02:13;;;;;;;1.45;0.60;;;;;;;9.41;100.00;101424.94;5010225;28;20410;-64
2023/01/06 05:04:38;;;;;;;2.55;0.50;;;;;;;9.41;100.00;101418.91;5010407;28;20034;-64
2023/01/06 05:07:03;;;;;;;0.70;0.38;;;;;;;9.41;100.00;101409.44;5009424;28;20025;-63
2023/01/06 05:09:28;;;;;;;1.75;0.70;;;;;;;9.44;100.00;101416.47;5017586;28;20029;-64
2023/01/06 05:11:54;;;;;;;2.33;0.50;;;;;;;9.43;100.00;101412.06;5013586;28;20105;-64
2023/01/06 05:14:19;;;;;;;1.23;0.65;;;;;;;9.45;100.00;101405.28;5026620;28;20024;-64
2023/01/06 05:16:44;;;;;;;1.35;0.47;;;;;;;9.44;100.00;101399.25;5026601;28;20087;-64
2023/01/06 05:19:09;;;;;;;4.47;0.60;;;;;;;9.44;100.00;101403.53;5026494;28;20367;-64
2023/01/06 05:21:35;;;;;;;1.33;0.50;;;;;;;9.46;100.00;101407.06;5026319;28;20109;-64
2023/01/06 05:24:00;;;;;;;1.90;0.85;;;;;;;9.48;100.00;101405.41;5033742;28;20401;-64
2023/01/06 05:26:27;;;;;;;1.95;0.50;;;;;;;9.45;100.00;101411.34;5034759;28;20028;-64
2023/01/06 05:28:53;;;;;;;1.33;0.50;;;;;;;9.45;100.00;101410.44;5029579;28;20030;-64
2023/01/06 05:31:18;;;;;;;3.30;0.80;;;;;;;9.45;100.00;101410.44;5027949;28;20029;-64
2023/01/06 05:33:44;;;;;;;0.93;0.50;;;;;;;9.49;100.00;101407.19;5038381;28;20412;-63
2023/01/06 05:36:14;;;;;;;1.77;0.50;;;;;;;9.49;100.00;101412.38;5029148;28;20029;-64
2023/01/06 05:38:40;;;;;;;2.22;0.63;;;;;;;9.48;100.00;101415.75;5016156;28;20025;-64
2023/01/06 05:41:06;;;;;;;2.00;0.60;;;;;;;9.45;100.00;101420.81;5018715;28;20021;-64
2023/01/06 05:43:34;;;;;;;0.85;0.50;;;;;;;9.45;100.00;101418.22;5019781;28;20500;-63
2023/01/06 05:46:04;;;;;;;2.25;0.60;;;;;;;9.47;100.00;101414.00;5026294;28;20386;-64
2023/01/06 05:48:29;;;;;;;2.08;0.60;;;;;;;9.50;100.00;101419.31;5018114;28;20026;-64
2023/01/06 05:51:05;;;;;;;3.28;0.65;;;;;;;9.46;100.00;101420.88;5012606;28;20410;-64
2023/01/06 05:53:36;;;;;;;3.85;0.60;;;;;;;9.46;100.00;101410.53;5011571;28;20050;-64
2023/01/06 05:56:03;;;;;;;2.47;0.70;;;;;;;9.45;100.00;101416.53;5010491;28;20161;-64
2023/01/06 05:58:28;;;;;;;1.35;0.50;;;;;;;9.44;100.00;101414.75;5013079;28;20148;-64
2023/01/06 06:00:54;;;;;;;1.10;0.65;;;;;;;9.44;100.00;101411.28;5014563;28;20152;-64
2023/01/06 06:03:19;;;;;;;2.55;1.33;;;;;;;9.46;100.00;101410.53;5013868;28;20026;-64
2023/01/06 06:05:44;;;;;;;1.10;0.47;;;;;;;9.48;100.00;101421.84;5013190;28;20477;-64
2023/01/06 06:08:10;;;;;;;2.50;0.60;;;;;;;9.51;100.00;101415.94;5018986;28;20458;-64
2023/01/06 06:10:35;;;;;;;1.52;0.63;;;;;;;9.53;100.00;101427.22;5023820;28;20687;-64
2023/01/06 06:13:00;;;;;;;1.65;0.60;;;;;;;9.55;100.00;101419.53;5024840;28;20040;-64
2023/01/06 06:15:25;;;;;;;1.17;0.57;;;;;;;9.51;100.00;101420.19;5023274;28;20107;-64
2023/01/06 06:17:51;;;;;;;3.53;0.85;;;;;;;9.51;100.00;101420.19;5038270;28;20060;-64
2023/01/06 06:20:16;;;;;;;2.38;0.70;;;;;;;9.49;100.00;101410.69;5019674;28;20057;-64
2023/01/06 06:22:41;;;;;;;1.58;0.50;;;;;;;9.48;100.00;101421.84;5011557;28;20025;-64
2023/01/06 06:25:07;;;;;;;1.02;0.63;;;;;;;9.52;100.00;101417.69;5011053;28;20040;-64
2023/01/06 06:27:32;;;;;;;1.52;0.60;;;;;;;9.49;100.00;101415.84;5010449;28;20521;-64
2023/01/06 06:29:57;;;;;;;1.92;0.60;;;;;;;9.48;100.00;101421.84;5021139;28;20032;-64
2023/01/06 06:32:23;;;;;;;2.13;0.73;;;;;;;9.49;100.00;101417.56;5024594;28;20025;-63
2023/01/06 06:34:48;;;;;;;2.67;0.73;;;;;;;9.49;100.00;101418.44;5022617;28;20025;-64
2023/01/06 06:37:13;;;;;;;4.40;0.80;;;;;;;9.50;100.00;101414.13;5008689;28;20108;-64
2023/01/06 06:39:38;;;;;;;1.08;0.65;;;;;;;9.51;100.00;101410.75;5017344;28;20037;-64
2023/01/06 06:42:04;;;;;;;0.70;0.70;;;;;;;9.50;100.00;101421.91;5020292;28;20040;-64
2023/01/06 06:44:29;;;;;;;1.65;0.55;;;;;;;9.51;100.00;101408.16;5009559;28;20040;-64
2023/01/06 06:46:55;;;;;;;1.88;0.88;;;;;;;9.50;100.00;101419.31;5013447;28;20018;-65
2023/01/06 06:49:20;;;;;;;3.05;0.70;;;;;;;9.51;100.00;101412.44;5011151;28;20379;-64
2023/01/06 06:51:46;;;;;;;2.40;0.80;;;;;;;9.47;100.00;101419.19;5010648;28;20049;-64
2023/01/06 06:54:12;;;;;;;2.30;0.85;;;;;;;9.45;100.00;101418.22;5011322;28;20025;-64
2023/01/06 06:56:37;;;;;;;1.48;0.85;;;;;;;9.45;100.00;101415.63;5011481;28;20478;-64
2023/01/06 06:59:03;;;;;;;1.52;0.90;;;;;;;9.42;100.00;101412.91;5011282;28;20041;-64
2023/01/06 07:01:30;;;;;;;3.72;1.00;;;;;;;9.37;100.00;101408.41;5013055;28;20485;-64
2023/01/06 07:03:55;;;;;;;0.75;0.70;;;;;;;9.40;100.00;101427.47;5011967;28;20025;-64
2023/01/06 07:06:23;;;;;;;4.32;0.80;;;;;;;9.34;100.00;101423.78;5027933;28;20547;-64
2023/01/06 07:08:49;;;;;;;2.63;0.93;;;;;;;9.32;100.00;101425.41;5022767;28;20512;-64
2023/01/06 07:11:15;;;;;;;2.13;0.95;;;;;;;9.30;100.00;101437.38;5016281;28;20061;-64
2023/01/06 07:13:40;;;;;;;2.92;0.90;;;;;;;9.29;100.00;101440.78;5009317;28;20028;-64
2023/01/06 07:16:06;;;;;;;3.05;1.20;;;;;;;9.25;100.00;101444.03;5023827;28;20025;-64
2023/01/06 07:18:32;;;;;;;3.05;1.20;;;;;;;9.22;100.00;101452.56;5027319;28;20025;-64
2023/01/06 07:20:58;;;;;;;2.20;1.00;;;;;;;9.21;100.00;101444.72;5021876;28;20023;-63
2023/01/06 07:23:24;;;;;;;2.38;1.60;;;;;;;9.18;100.00;101442.88;5022452;28;20029;-64
2023/01/06 07:25:57;;;;;;;2.03;1.30;;;;;;;9.15;100.00;101436.66;5015550;28;22072;-63
2023/01/06 07:28:24;;;;;;;2.35;1.20;;;;;;;9.10;100.00;101433.88;5025541;28;20057;-64
2023/01/06 07:30:50;;;;;;;3.22;1.17;;;;;;;9.08;100.00;101435.50;5015588;28;20096;-64
2023/01/06 07:33:15;;;;;;;3.58;1.33;;;;;;;9.07;100.00;101438.88;5025465;28;20108;-64
2023/01/06 07:35:40;;;;;;;2.33;1.08;;;;;;;9.08;100.00;101449.31;5012252;28;20543;-64
2023/01/06 07:38:07;;;;;;;3.03;1.23;;;;;;;9.08;100.00;101448.41;5025395;28;20489;-64
2023/01/06 07:40:33;;;;;;;2.65;1.05;;;;;;;9.04;100.00;101449.97;5021140;28;20108;-64
2023/01/06 07:43:05;;;;;;;2.83;1.20;;;;;;;9.03;100.00;101457.66;5030515;28;20018;-64
2023/01/06 07:45:32;;;;;;;2.28;1.40;;;;;;;9.03;100.00;101463.69;5017384;28;20021;-64
2023/01/06 07:47:57;;;;;;;3.25;1.10;;;;;;;9.01;100.00;101462.75;5017368;28;20498;-64
2023/01/06 07:50:22;;;;;;;1.52;1.23;;;;;;;8.99;100.00;101469.56;5018324;28;20100;-64
2023/01/06 07:52:48;;;;;;;2.97;1.75;;;;;;;8.97;100.00;101458.25;5024160;28;20045;-65
2023/01/06 07:55:13;;;;;;;1.85;1.15;;;;;;;9.01;100.00;101465.34;5014806;28;20025;-64
2023/01/06 07:57:38;;;;;;;2.15;1.50;;;;;;;8.99;100.00;101466.97;5021151;28;20069;-64
2023/01/06 08:00:04;;;;;;;2.35;1.30;;;;;;;9.03;100.00;101474.03;5013853;28;20595;-64
2023/01/06 08:02:29;;;;;;;2.55;1.33;;;;;;;9.04;100.00;101475.81;5013096;28;20018;-65
2023/01/06 08:04:54;;;;;;;1.88;1.50;;;;;;;9.03;100.00;101479.22;5009107;28;20022;-65
2023/01/06 08:07:20;;;;;;;3.85;1.65;;;;;;;9.03;100.00;101471.44;5024067;28;20438;-64
2023/01/06 08:09:45;;;;;;;1.55;1.27;;;;;;;9.06;100.00;101469.03;5026115;28;20033;-64
2023/01/06 08:12:11;;;;;;;1.60;0.98;;;;;;;9.10;100.00;101480.41;5026046;28;20025;-65
2023/01/06 08:14:36;;;;;;;1.90;1.30;;;;;;;9.09;100.00;101491.56;5030441;28;20123;-64
2023/01/06 08:17:01;;;;;;;2.15;1.30;;;;;;;9.12;100.00;101505.50;5029786;28;20435;-64
2023/01/06 08:19:27;;;;;;;1.75;1.30;;;;;;;9.15;100.00;101498.72;5039040;28;20537;-65
2023/01/06 08:21:52;;;;;;;1.35;1.20;;;;;;;9.18;100.00;101504.03;5021456;28;20025;-64
2023/01/06 08:24:17;;;;;;;2.42;1.80;;;;;;;9.18;100.00;101509.22;5023560;28;20292;-63
2023/01/06 08:26:42;;;;;;;2.38;1.50;;;;;;;9.17;100.00;101512.63;5026134;28;20090;-64
2023/01/06 08:29:08;;;;;;;1.42;1.30;;;;;;;9.19;100.00;101506.69;5026713;28;20029;-64
2023/01/06 08:31:33;;;;;;;1.92;1.35;;;;;;;9.21;100.00;101507.66;5026654;28;20040;-64
2023/01/06 08:33:59;;;;;;;1.63;1.52;;;;;;;9.23;100.00;101512.91;5028457;28;20100;-64
2023/01/06 08:36:25;;;;;;;1.83;1.60;;;;;;;9.23;100.00;101507.72;5027127;28;20465;-64
2023/01/06 08:38:50;;;;;;;1.50;1.40;;;;;;;9.26;100.00;101510.50;5027404;28;20033;-64
2023/01/06 08:41:16;;;;;;;1.40;1.17;;;;;;;9.28;100.00;101521.81;5027481;28;20036;-64
2023/01/06 08:43:43;;;;;;;1.63;1.50;;;;;;;9.33;100.00;101529.75;5026073;28;20045;-64
2023/01/06 08:46:11;;;;;;;1.90;1.20;;;;;;;9.34;100.00;101531.53;5027032;28;20039;-64
2023/01/06 08:48:36;;;;;;;1.95;1.45;;;;;;;9.36;100.00;101535.97;5027437;28;20036;-64
2023/01/06 08:51:04;;;;;;;4.68;1.45;;;;;;;9.38;100.00;101538.63;5027642;28;20025;-64
2023/01/06 08:53:29;;;;;;;2.63;1.40;;;;;;;9.42;100.00;101542.25;5027266;28;20057;-64
2023/01/06 08:55:55;;;;;;;1.60;1.50;;;;;;;9.41;100.00;101551.72;5027498;28;20036;-64
2023/01/06 08:58:20;;;;;;;2.00;1.48;;;;;;;9.41;100.00;101561.19;5027600;28;20183;-64
2023/01/06 09:00:45;;;;;;;1.50;1.40;;;;;;;9.41;100.00;101551.72;5027127;28;20049;-64
2023/01/06 09:03:10;;;;;;;2.47;2.28;;;;;;;9.41;100.00;101559.47;5027190;28;20061;-64
2023/01/06 09:05:36;;;;;;;3.28;2.40;;;;;;;9.40;100.00;101561.97;5027431;28;20017;-64
2023/01/06 09:08:01;;;;;;;2.65;2.45;;;;;;;9.41;100.00;101566.38;5027405;28;20036;-64
2023/01/06 09:10:26;;;;;;;3.35;2.28;;;;;;;9.43;100.00;101572.47;5027330;28;20112;-64
2023/01/06 09:12:52;;;;;;;2.88;2.17;;;;;;;9.44;100.00;101574.25;5027444;28;20056;-64
2023/01/06 09:15:17;;;;;;;2.15;1.92;;;;;;;9.46;100.00;101572.66;5026974;28;20466;-64
2023/01/06 09:17:42;;;;;;;2.60;2.40;;;;;;;9.49;100.00;101577.97;5027334;28;20422;-64
2023/01/06 09:20:08;;;;;;;2.50;2.08;;;;;;;9.48;100.00;101571.88;5027102;28;20413;-64
2023/01/06 09:22:33;;;;;;;3.05;2.85;;;;;;;9.48;100.00;101582.25;5027378;28;20450;-64
2023/01/06 09:24:58;;;;;;;5.20;4.03;;;;;;;9.52;100.00;101592.72;5026579;28;20021;-64
2023/01/06 09:27:24;;;;;;;4.22;3.78;;;;;;;9.51;100.00;101586.69;5027110;28;20018;-63
2023/01/06 09:29:49;;;;;;;3.03;2.80;;;;;;;9.54;100.00;101589.41;5027144;28;20044;-64
2023/01/06 09:32:15;;;;;;;3.63;3.10;;;;;;;9.54;100.00;101596.28;5027617;28;20029;-64
2023/01/06 09:34:40;;;;;;;3.22;3.03;;;;;;;9.54;100.00;101601.47;5026800;28;20022;-64
2023/01/06 09:37:05;;;;;;;4.18;3.75;;;;;;;9.56;100.00;101600.72;5027001;28;20029;-64
2023/01/06 09:39:31;;;;;;;3.78;3.45;;;;;;;9.54;100.00;101612.69;5027454;28;20028;-64
2023/01/06 09:42:34;;;;;;;4.25;3.25;;;;;;;9.56;100.00;101605.91;5027156;28;20060;-64
2023/01/06 09:45:05;;;;;;;3.95;3.28;;;;;;;9.56;100.00;101605.91;5026634;28;20032;-64
2023/01/06 09:47:38;;;;;;;3.70;2.83;;;;;;;9.60;100.00;101600.06;5027177;28;20493;-64
2023/01/06 09:50:13;;;;;;;2.60;2.40;;;;;;;9.61;100.00;101616.47;5027102;28;20032;-64
2023/01/06 09:52:51;;;;;;;5.40;3.10;;;;;;;9.64;100.00;101613.16;5026937;28;20049;-64
2023/01/06 09:55:32;;;;;;;4.30;3.03;;;;;;;9.69;100.00;101611.66;5027031;28;20045;-64
2023/01/06 09:58:04;;;;;;;3.92;3.58;;;;;;;9.75;100.00;101627.47;5026691;28;20516;-64
2023/01/06 10:00:51;;;;;;;4.88;3.70;;;;;;;9.88;100.00;101638.41;5026868;28;20057;-64
2023/01/06 10:03:25;;;;;;;4.28;3.88;;;;;;;9.95;100.00;101635.31;5026888;28;20025;-64
2023/01/06 10:06:27;;;;;;;3.50;3.20;;;;;;;10.03;100.00;101639.16;5027140;28;20017;-64
2023/01/06 10:09:22;;;;;;;4.80;4.38;;;;;;;10.08;100.00;101639.38;5027014;28;20457;-64
2023/01/06 10:11:50;;;;;;;4.88;4.38;;;;;;;10.08;100.00;101642.84;5029089;28;20029;-64
2023/01/06 10:14:41;;;;;;;4.07;3.67;;;;;;;10.07;100.00;101628.13;5030375;28;20028;-64
2023/01/06 10:17:44;;;;;;;4.15;3.75;;;;;;;10.05;100.00;101629.78;5030439;28;20036;-64
2023/01/06 10:20:21;;;;;;;4.53;4.13;;;;;;;10.01;100.00;101627.84;5029960;28;20063;-64
2023/01/06 10:23:05;;;;;;;5.53;4.22;;;;;;;10.00;100.00;101628.66;5030210;28;20351;-64
2023/01/06 10:25:33;;;;;;;6.05;3.55;;;;;;;9.98;100.00;101630.31;5030046;28;20036;-64
2023/01/06 10:28:11;;;;;;;3.97;3.63;;;;;;;9.99;100.00;101626.88;5030286;28;20457;-64
2023/01/06 10:30:42;;;;;;;14.82;9.30;;;;;;;10.00;100.00;101633.81;5030155;28;20022;-64
2023/01/06 10:33:33;;;;;;;11.15;8.43;;;;;;;10.01;100.00;101634.72;5028807;28;20044;-64
2023/01/06 10:35:59;;;;;;;4.90;3.55;;;;;;;10.00;100.00;101636.41;5029506;28;20044;-64
2023/01/06 10:38:32;;;;;;;4.97;3.72;;;;;;;10.02;100.00;101636.50;5030102;28;20032;-64
2023/01/06 10:41:09;;;;;;;4.75;3.47;;;;;;;10.02;100.00;101627.03;5029770;28;20433;-64
2023/01/06 10:43:35;;;;;;;5.57;3.05;;;;;;;10.04;100.00;101625.41;5029885;28;20033;-64
2023/01/06 10:46:00;;;;;;;4.45;3.08;;;;;;;10.06;100.00;101631.53;5030169;28;20734;-64
2023/01/06 10:48:29;;;;;;;3.88;3.15;;;;;;;10.08;100.00;101632.50;5030392;28;20053;-64
2023/01/06 10:50:55;;;;;;;3.03;2.63;;;;;;;10.08;100.00;101627.31;5029625;28;20484;-64
2023/01/06 10:53:21;;;;;;;5.78;3.85;;;;;;;10.05;100.00;101627.19;5029705;28;20053;-64
2023/01/06 10:55:57;;;;;;;5.45;3.97;;;;;;;10.02;100.00;101627.03;5030097;28;20030;-64
2023/01/06 10:58:46;;;;;;;5.10;4.70;;;;;;;10.00;100.00;101623.47;5029425;28;20474;-64
2023/01/06 11:01:15;;;;;;;5.45;4.97;;;;;;;10.01;100.00;101624.38;5029631;28;20021;-64
2023/01/06 11:03:41;;;;;;;5.07;4.68;;;;;;;10.00;100.00;101623.47;5029561;28;20044;-64
2023/01/06 11:06:27;;;;;;;6.57;4.53;;;;;;;9.97;100.00;101629.41;5029975;28;20025;-64
2023/01/06 11:08:53;;;;;;;5.78;5.10;;;;;;;9.95;100.00;101632.72;5029345;28;20032;-64
2023/01/06 11:11:21;;;;;;;5.82;5.32;;;;;;;9.92;100.00;101632.59;5029328;28;20029;-64
2023/01/06 11:14:00;;;;;;;6.43;5.80;;;;;;;9.89;100.00;101635.03;5029703;28;20381;-64
2023/01/06 11:16:34;;;;;;;6.80;6.20;;;;;;;9.88;100.00;101638.41;5029188;28;20032;-64
2023/01/06 11:19:06;;;;;;;6.60;5.93;;;;;;;9.85;100.00;101640.06;5029335;28;20065;-64
2023/01/06 11:21:41;;;;;;;7.32;6.63;;;;;;;9.84;100.00;101630.50;5028809;28;20572;-64
2023/01/06 11:24:47;;;;;;;10.27;7.60;;;;;;;9.84;100.00;101630.50;5028692;28;20520;-64
2023/01/06 11:27:16;;;;;;;9.48;7.28;;;;;;;9.86;100.00;101622.81;5028920;28;20507;-64
2023/01/06 11:29:41;;;;;;;9.50;7.15;;;;;;;9.87;100.00;101624.63;5028667;28;20039;-64
2023/01/06 11:32:25;;;;;;;8.50;7.07;;;;;;;9.88;100.00;101618.59;5029111;28;20029;-64
2023/01/06 11:34:55;;;;;;;7.22;6.30;;;;;;;9.90;100.00;101623.84;5029043;28;20029;-64
2023/01/06 11:37:36;;;;;;;6.47;5.80;;;;;;;9.91;100.00;101639.47;5029178;28;20364;-64
2023/01/06 11:40:03;;;;;;;;;;;;;;;9.94;100.00;101618.00;5029105;28;20492;-64